createdAt,value
2024-05-09T00:00:36.305Z,50.68
2024-05-09T00:03:08.409Z,50.55
2024-05-09T00:05:37.096Z,50.77
2024-05-09T00:08:04.372Z,50.75
2024-05-09T00:10:36.386Z,50.74
2024-05-09T00:13:06.432Z,50.70
2024-05-09T00:15:33.967Z,50.96
2024-05-09T00:18:01.408Z,51.06
2024-05-09T00:20:36.490Z,51.05
2024-05-09T00:23:10.598Z,51.21
2024-05-09T00:25:38.245Z,50.95
2024-05-09T00:28:05.723Z,51.05
2024-05-09T00:30:35.439Z,50.96
2024-05-09T00:33:05.694Z,51.17
2024-05-09T00:35:33.561Z,51.30
2024-05-09T00:38:00.624Z,51.28
2024-05-09T00:40:37.599Z,51.47
2024-05-09T00:43:07.094Z,51.21
2024-05-09T00:45:35.039Z,51.39
2024-05-09T00:48:06.770Z,51.35
2024-05-09T00:50:37.335Z,51.36
2024-05-09T00:53:06.703Z,51.18
2024-05-09T00:55:35.458Z,51.30
2024-05-09T00:58:03.130Z,51.49
2024-05-09T01:00:37.798Z,51.64
2024-05-09T01:03:07.308Z,51.69
2024-05-09T01:05:35.056Z,51.49
2024-05-09T01:08:02.810Z,51.64
2024-05-09T01:10:34.442Z,51.64
2024-05-09T01:13:04.348Z,51.84
2024-05-09T01:15:31.276Z,51.59
2024-05-09T01:17:58.902Z,51.66
2024-05-09T01:20:36.803Z,51.69
2024-05-09T01:23:09.705Z,51.81
2024-05-09T01:25:36.838Z,51.55
2024-05-09T01:28:03.881Z,51.96
2024-05-09T01:30:34.985Z,51.85
2024-05-09T01:33:05.408Z,51.84
2024-05-09T01:35:33.220Z,52.11
2024-05-09T01:37:59.990Z,51.99
2024-05-09T01:41:35.795Z,51.69
2024-05-09T01:52:02.210Z,52.25
2024-05-09T01:55:02.004Z,51.95
2024-05-09T01:57:52.003Z,52.31
2024-05-09T03:16:29.241Z,52.97
2024-05-09T04:03:11.190Z,53.72
2024-05-09T05:26:07.344Z,55.28
2024-05-09T05:29:08.554Z,55.51
2024-05-09T06:12:43.826Z,56.26
2024-05-09T06:15:39.535Z,55.91
2024-05-09T07:30:11.520Z,56.93
2024-05-09T07:32:38.485Z,56.97
2024-05-09T07:35:05.561Z,57.13
2024-05-09T07:37:32.179Z,56.74
2024-05-09T07:39:58.781Z,56.90
2024-05-09T07:42:25.581Z,56.62
2024-05-09T07:44:52.411Z,56.59
2024-05-09T07:48:29.063Z,56.65
2024-05-09T07:53:33.870Z,56.33
2024-05-09T07:55:25.804Z,56.43
2024-05-09T07:57:52.599Z,56.24
2024-05-09T08:00:26.770Z,56.63
2024-05-09T08:02:56.727Z,56.75
2024-05-09T08:05:24.757Z,56.65
2024-05-09T08:07:53.141Z,56.25
2024-05-09T08:10:24.490Z,56.00
2024-05-09T08:12:54.220Z,55.90
2024-05-09T08:15:21.057Z,55.74
2024-05-09T08:17:47.941Z,55.79
2024-05-09T08:20:22.877Z,55.46
2024-05-09T08:22:57.244Z,55.60
2024-05-09T08:25:25.430Z,55.26
2024-05-09T08:27:52.068Z,55.41
2024-05-09T08:30:25.194Z,55.39
2024-05-09T08:32:56.913Z,55.06
2024-05-09T08:35:23.806Z,55.09
2024-05-09T08:37:51.646Z,55.08
2024-05-09T08:40:24.239Z,54.77
2024-05-09T08:42:57.861Z,54.98
2024-05-09T08:45:25.971Z,54.59
2024-05-09T08:47:54.349Z,54.47
2024-05-09T08:50:32.396Z,54.60
2024-05-09T08:53:05.508Z,54.61
2024-05-09T08:55:32.307Z,54.30
2024-05-09T08:58:03.562Z,54.34
2024-05-09T09:00:36.842Z,54.39
2024-05-09T09:03:05.883Z,54.20
2024-05-09T09:05:37.943Z,54.75
2024-05-09T09:08:07.552Z,54.61
2024-05-09T09:10:35.196Z,54.49
2024-05-09T09:13:04.906Z,54.26
2024-05-09T09:15:33.011Z,54.38
2024-05-09T09:18:00.842Z,54.51
2024-05-09T09:20:35.713Z,54.15
2024-05-09T09:23:04.686Z,53.90
2024-05-09T09:25:31.938Z,53.70
2024-05-09T09:27:59.459Z,53.41
2024-05-09T09:30:36.421Z,52.95
2024-05-09T09:33:12.120Z,52.86
2024-05-09T09:35:42.317Z,53.07
2024-05-09T09:38:11.268Z,52.84
2024-05-09T09:40:46.530Z,52.92
2024-05-09T09:43:20.604Z,53.04
2024-05-09T09:45:53.203Z,52.86
2024-05-09T09:48:21.752Z,53.23
2024-05-09T09:50:51.072Z,53.22
2024-05-09T09:53:19.020Z,52.98
2024-05-09T09:55:46.817Z,52.67
2024-05-09T09:58:18.219Z,52.25
2024-05-09T10:00:45.649Z,52.12
2024-05-09T10:03:12.458Z,51.75
2024-05-09T10:05:42.945Z,51.61
2024-05-09T10:08:12.946Z,51.88
2024-05-09T10:10:40.198Z,52.02
2024-05-09T10:13:08.491Z,51.96
2024-05-09T10:15:48.152Z,51.21
2024-05-09T10:18:15.613Z,51.58
2024-05-09T10:20:46.523Z,51.90
2024-05-09T10:23:30.508Z,50.27
2024-05-09T10:26:03.220Z,51.23
2024-05-09T10:28:35.707Z,51.09
2024-05-09T10:31:13.953Z,51.56
2024-05-09T10:33:49.528Z,50.33
2024-05-09T10:36:24.617Z,50.05
2024-05-09T10:38:52.745Z,50.63
2024-05-09T10:41:21.139Z,50.93
2024-05-09T10:43:48.397Z,50.79
2024-05-09T10:46:15.543Z,51.32
2024-05-09T10:48:43.759Z,51.24
2024-05-09T10:51:11.231Z,50.76
2024-05-09T10:53:42.362Z,50.81
2024-05-09T10:56:10.080Z,50.80
2024-05-09T10:58:37.136Z,50.65
2024-05-09T11:01:06.993Z,50.90
2024-05-09T11:03:34.996Z,50.92
2024-05-09T11:06:02.409Z,50.70
2024-05-09T11:08:31.619Z,50.68
2024-05-09T11:10:59.578Z,51.18
2024-05-09T11:13:35.248Z,50.57
2024-05-09T11:16:02.951Z,50.36
2024-05-09T11:18:35.092Z,49.90
2024-05-09T11:21:13.014Z,50.03
2024-05-09T11:23:40.525Z,50.17
2024-05-09T11:26:07.618Z,50.65
2024-05-09T11:28:35.591Z,50.31
2024-05-09T11:31:10.615Z,50.70
2024-05-09T11:33:43.295Z,50.46
2024-05-09T11:36:10.680Z,50.38
2024-05-09T11:38:37.393Z,50.91
2024-05-09T11:41:04.961Z,51.03
2024-05-09T11:43:32.079Z,50.59
2024-05-09T11:45:58.894Z,50.93
2024-05-09T11:48:26.466Z,50.61
2024-05-09T11:50:54.667Z,50.39
2024-05-09T11:53:21.379Z,50.39
2024-05-09T11:55:47.980Z,50.07
2024-05-09T11:58:17.150Z,50.54
2024-05-09T12:00:44.931Z,49.89
2024-05-09T12:03:11.685Z,50.20
2024-05-09T12:05:38.544Z,49.92
2024-05-09T12:08:06.059Z,50.33
2024-05-09T12:10:35.398Z,50.21
2024-05-09T12:13:05.054Z,50.16
2024-05-09T12:15:33.957Z,50.11
2024-05-09T12:18:03.388Z,49.78
2024-05-09T12:20:36.831Z,49.36
2024-05-09T12:23:06.557Z,50.12
2024-05-09T12:25:33.401Z,48.81
2024-05-09T12:28:00.483Z,48.25
2024-05-09T12:30:35.530Z,48.38
2024-05-09T12:33:07.287Z,48.56
2024-05-09T12:35:36.560Z,48.91
2024-05-09T12:38:03.452Z,48.92
2024-05-09T12:40:36.121Z,48.94
2024-05-09T12:43:06.362Z,47.88
2024-05-09T12:45:33.487Z,48.49
2024-05-09T12:48:00.726Z,48.43
2024-05-09T12:50:32.565Z,48.35
2024-05-09T12:53:01.685Z,47.52
2024-05-09T12:55:33.477Z,47.35
2024-05-09T12:58:06.968Z,47.38
2024-05-09T13:00:34.515Z,47.27
2024-05-09T13:03:01.670Z,47.62
2024-05-09T13:05:29.055Z,47.76
2024-05-09T13:07:56.814Z,47.85
2024-05-09T13:10:30.862Z,47.59
2024-05-09T13:13:00.005Z,47.56
2024-05-09T13:15:27.125Z,47.45
2024-05-09T13:17:55.788Z,47.59
2024-05-09T13:20:31.267Z,47.17
2024-05-09T13:23:02.003Z,46.88
2024-05-09T13:25:28.764Z,46.96
2024-05-09T13:27:56.253Z,45.96
2024-05-09T13:30:29.772Z,46.56
2024-05-09T13:33:05.459Z,46.55
2024-05-09T13:35:34.198Z,46.96
2024-05-09T13:38:01.937Z,46.77
2024-05-09T13:40:33.663Z,47.33
2024-05-09T13:43:02.818Z,46.82
2024-05-09T13:45:30.850Z,47.07
2024-05-09T13:47:57.694Z,47.33
2024-05-09T13:50:33.102Z,47.54
2024-05-09T13:53:03.120Z,47.31
2024-05-09T13:55:29.898Z,47.32
2024-05-09T13:57:56.718Z,46.50
2024-05-09T14:00:37.788Z,47.33
2024-05-09T14:03:10.806Z,46.16
2024-05-09T14:05:37.790Z,45.78
2024-05-09T14:08:04.897Z,46.58
2024-05-09T14:10:32.451Z,46.77
2024-05-09T14:13:01.041Z,47.06
2024-05-09T14:15:27.901Z,46.47
2024-05-09T14:17:55.231Z,45.40
2024-05-09T14:20:30.250Z,45.03
2024-05-09T14:22:59.303Z,45.01
2024-05-09T14:25:28.272Z,44.77
2024-05-09T14:27:55.453Z,44.75
2024-05-09T14:30:30.450Z,44.19
2024-05-09T14:33:03.454Z,44.83
2024-05-09T14:35:30.342Z,45.17
2024-05-09T14:37:57.143Z,45.42
2024-05-09T14:42:53.427Z,46.16
2024-05-09T14:45:21.348Z,46.38
2024-05-09T14:47:48.327Z,46.33
2024-05-09T14:50:23.692Z,45.78
2024-05-09T14:52:54.948Z,45.54
2024-05-09T14:55:21.613Z,44.76
2024-05-09T14:57:48.713Z,43.41
2024-05-09T15:00:24.682Z,42.90
2024-05-09T15:02:55.185Z,43.63
2024-05-09T15:05:21.917Z,44.19
2024-05-09T15:07:48.895Z,43.50
2024-05-09T15:10:23.809Z,43.65
2024-05-09T15:12:58.214Z,44.13
2024-05-09T15:15:24.821Z,43.83
2024-05-09T15:17:51.615Z,44.07
2024-05-09T15:20:26.790Z,44.60
2024-05-09T15:22:58.448Z,43.59
2024-05-09T15:25:25.044Z,43.95
2024-05-09T15:27:51.748Z,43.98
2024-05-09T15:30:24.011Z,43.49
2024-05-09T15:32:54.939Z,43.59
2024-05-09T15:35:21.618Z,43.59
2024-05-09T15:37:48.989Z,43.82
2024-05-09T15:40:25.990Z,44.09
2024-05-09T15:43:01.720Z,44.02
2024-05-09T15:45:29.327Z,44.50
2024-05-09T15:47:57.005Z,44.64
2024-05-09T15:50:35.136Z,44.26
2024-05-09T15:53:06.308Z,43.96
2024-05-09T15:55:34.336Z,43.93
2024-05-09T15:58:01.936Z,44.14
2024-05-09T16:00:36.766Z,44.62
2024-05-09T16:03:07.440Z,44.30
2024-05-09T16:05:34.480Z,44.62
2024-05-09T16:08:01.275Z,44.61
2024-05-09T16:10:32.638Z,44.43
2024-05-09T16:13:01.055Z,44.95
2024-05-09T16:15:27.799Z,45.05
2024-05-09T16:17:55.307Z,45.44
2024-05-09T16:20:33.827Z,44.54
2024-05-09T16:23:06.352Z,44.50
2024-05-09T16:25:33.055Z,44.61
2024-05-09T16:28:00.085Z,44.39
2024-05-09T16:30:33.920Z,44.44
2024-05-09T16:33:03.387Z,44.34
2024-05-09T16:35:30.556Z,44.34
2024-05-09T16:37:57.441Z,43.95
2024-05-09T16:40:34.293Z,44.27
2024-05-09T16:43:06.273Z,44.30
2024-05-09T16:45:33.350Z,44.64
2024-05-09T16:48:00.690Z,44.69
2024-05-09T16:50:32.726Z,44.01
2024-05-09T16:53:02.210Z,43.72
2024-05-09T16:55:29.141Z,43.56
2024-05-09T16:57:56.944Z,43.96
2024-05-09T17:00:34.943Z,43.58
2024-05-09T17:03:08.597Z,43.98
2024-05-09T17:05:35.998Z,44.22
2024-05-09T17:08:03.199Z,44.18
2024-05-09T17:10:33.593Z,44.33
2024-05-09T17:13:06.995Z,44.28
2024-05-09T17:15:35.494Z,43.98
2024-05-09T17:18:03.425Z,43.89
2024-05-09T17:20:34.467Z,43.48
2024-05-09T17:23:05.625Z,43.19
2024-05-09T17:25:32.966Z,42.91
2024-05-09T17:28:06.084Z,42.74
2024-05-09T17:30:36.792Z,42.92
2024-05-09T17:33:07.512Z,42.57
2024-05-09T17:35:35.606Z,42.64
2024-05-09T17:38:02.526Z,43.11
2024-05-09T17:40:33.769Z,42.99
2024-05-09T17:43:04.464Z,42.88
2024-05-09T17:45:32.090Z,42.75
2024-05-09T17:47:59.429Z,42.80
2024-05-09T17:50:31.924Z,42.95
2024-05-09T17:53:02.908Z,42.89
2024-05-09T17:55:30.037Z,42.97
2024-05-09T17:57:57.187Z,43.46
2024-05-09T18:00:33.506Z,43.86
2024-05-09T18:03:06.369Z,44.36
2024-05-09T18:05:34.020Z,44.61
2024-05-09T18:08:00.772Z,45.42
2024-05-09T18:10:35.145Z,45.62
2024-05-09T18:13:05.458Z,45.53
2024-05-09T18:15:32.789Z,45.91
2024-05-09T18:17:59.946Z,45.92
2024-05-09T18:20:37.883Z,45.92
2024-05-09T18:23:10.966Z,46.08
2024-05-09T18:25:38.160Z,45.94
2024-05-09T18:28:05.993Z,46.28
2024-05-09T18:30:35.593Z,46.33
2024-05-09T18:33:06.291Z,46.41
2024-05-09T18:35:34.728Z,46.43
2024-05-09T18:38:01.567Z,46.59
2024-05-09T18:40:34.015Z,46.56
2024-05-09T18:43:05.344Z,46.84
2024-05-09T18:45:33.532Z,46.89
2024-05-09T18:48:01.125Z,46.96
2024-05-09T18:50:34.665Z,46.99
2024-05-09T18:53:12.590Z,47.04
2024-05-09T18:55:43.145Z,46.89
2024-05-09T18:58:09.942Z,47.36
2024-05-09T19:00:39.620Z,47.60
2024-05-09T19:03:11.357Z,47.42
2024-05-09T19:05:40.957Z,47.43
2024-05-09T19:08:08.949Z,47.57
2024-05-09T19:10:38.645Z,47.49
2024-05-09T19:13:10.505Z,47.58
2024-05-09T19:15:40.163Z,48.07
2024-05-09T19:18:07.934Z,47.64
2024-05-09T19:20:36.609Z,47.68
2024-05-09T19:23:05.883Z,47.71
2024-05-09T19:25:33.225Z,47.72
2024-05-09T19:28:00.898Z,47.85
2024-05-09T19:30:36.774Z,47.92
2024-05-09T19:33:07.655Z,47.94
2024-05-09T19:35:35.071Z,47.95
2024-05-09T19:38:01.964Z,47.89
2024-05-09T19:40:32.147Z,48.00
2024-05-09T19:43:02.330Z,47.86
2024-05-09T19:45:29.730Z,48.03
2024-05-09T19:47:56.732Z,47.99
2024-05-09T19:50:32.241Z,47.98
2024-05-09T19:53:06.768Z,48.04
2024-05-09T19:55:33.697Z,47.98
2024-05-09T19:58:05.104Z,47.93
2024-05-09T20:00:39.463Z,48.08
2024-05-09T20:03:09.053Z,48.07
2024-05-09T20:05:36.970Z,48.18
2024-05-09T20:08:04.589Z,48.01
2024-05-09T20:10:33.466Z,48.37
2024-05-09T20:13:02.656Z,48.37
2024-05-09T20:15:29.595Z,48.51
2024-05-09T20:17:56.946Z,48.27
2024-05-09T20:20:32.691Z,48.05
2024-05-09T20:23:05.188Z,48.00
2024-05-09T20:25:31.800Z,48.43
2024-05-09T20:27:58.656Z,48.24
2024-05-09T20:30:31.541Z,48.38
2024-05-09T20:33:00.197Z,48.25
2024-05-09T20:35:27.459Z,48.29
2024-05-09T20:37:54.063Z,48.39
2024-05-09T20:40:28.680Z,48.35
2024-05-09T20:42:59.615Z,48.23
2024-05-09T20:45:26.377Z,48.21
2024-05-09T20:47:53.263Z,48.32
2024-05-09T20:50:28.537Z,48.29
2024-05-09T20:53:03.029Z,48.03
2024-05-09T20:55:29.844Z,48.22
2024-05-09T20:57:57.047Z,48.10
2024-05-09T21:00:30.345Z,48.24
2024-05-09T21:03:06.319Z,48.06
2024-05-09T21:05:33.707Z,48.31
2024-05-09T21:08:00.750Z,48.04
2024-05-09T21:10:31.569Z,48.25
2024-05-09T21:12:59.711Z,48.48
2024-05-09T21:15:26.348Z,48.34
2024-05-09T21:17:53.157Z,48.37
2024-05-09T21:20:24.393Z,48.39
2024-05-09T21:22:57.917Z,48.04
2024-05-09T21:25:24.757Z,48.33
2024-05-09T21:27:51.643Z,48.46
2024-05-09T21:30:27.314Z,48.41
2024-05-09T21:32:59.946Z,48.02
2024-05-09T21:35:26.787Z,48.48
2024-05-09T21:37:53.409Z,48.40
2024-05-09T21:40:27.371Z,48.33
2024-05-09T21:43:00.934Z,48.58
2024-05-09T21:45:27.780Z,48.63
2024-05-09T21:47:54.759Z,48.82
2024-05-09T21:50:28.063Z,48.56
2024-05-09T21:52:59.235Z,48.66
2024-05-09T21:55:25.918Z,48.81
2024-05-09T21:57:52.932Z,48.91
2024-05-09T22:00:28.427Z,48.95
2024-05-09T22:03:02.019Z,48.73
2024-05-09T22:05:28.980Z,48.91
2024-05-09T22:07:55.836Z,48.60
2024-05-09T22:10:26.556Z,48.91
2024-05-09T22:12:59.249Z,48.95
2024-05-09T22:15:26.001Z,49.08
2024-05-09T22:17:52.818Z,49.02
2024-05-09T22:20:28.611Z,48.84
2024-05-09T22:23:01.487Z,48.97
2024-05-09T22:25:30.496Z,48.97
2024-05-09T22:27:57.803Z,49.02
2024-05-09T22:30:33.148Z,49.20
2024-05-09T22:33:03.790Z,49.04
2024-05-09T22:35:30.510Z,49.10
2024-05-09T22:37:57.144Z,49.29
2024-05-09T22:40:32.289Z,49.35
2024-05-09T22:43:06.028Z,49.32
2024-05-09T22:45:33.784Z,49.41
2024-05-09T22:48:00.752Z,49.67
2024-05-09T22:50:32.880Z,49.49
2024-05-09T22:53:00.430Z,49.60
2024-05-09T22:55:27.354Z,49.33
2024-05-09T22:57:53.990Z,49.34
2024-05-09T23:00:29.210Z,49.24
2024-05-09T23:03:02.378Z,49.72
2024-05-09T23:05:29.513Z,49.69
2024-05-09T23:07:56.478Z,49.40
2024-05-09T23:10:31.100Z,49.64
2024-05-09T23:13:02.367Z,49.77
2024-05-09T23:15:29.123Z,49.62
2024-05-09T23:17:55.887Z,49.71
2024-05-09T23:20:33.289Z,49.88
2024-05-09T23:23:06.256Z,49.80
2024-05-09T23:28:00.315Z,49.84
2024-05-09T23:30:34.631Z,49.61
2024-05-09T23:33:05.934Z,49.71
2024-05-09T23:35:32.795Z,49.87
2024-05-09T23:37:59.550Z,50.05
2024-05-09T23:40:37.006Z,49.76
2024-05-09T23:43:07.365Z,49.88
2024-05-09T23:45:34.563Z,50.13
2024-05-09T23:48:01.646Z,49.92
2024-05-09T23:50:34.721Z,50.04
2024-05-09T23:53:05.052Z,50.06
2024-05-09T23:55:32.395Z,50.02
2024-05-09T23:57:59.496Z,50.42
